createdAt,value
2022-09-02T00:00:14.157Z,11.10
2022-09-02T00:02:42.417Z,11.00
2022-09-02T00:05:10.651Z,10.90
2022-09-02T00:07:38.726Z,10.90
2022-09-02T00:10:07.337Z,10.90
2022-09-02T00:12:35.406Z,10.80
2022-09-02T00:15:03.490Z,10.90
2022-09-02T00:17:32.937Z,11.00
2022-09-02T00:20:00.986Z,10.90
2022-09-02T00:22:29.107Z,10.90
2022-09-02T00:24:57.204Z,10.80
2022-09-02T00:27:25.385Z,10.80
2022-09-02T00:29:53.712Z,10.80
2022-09-02T00:32:21.819Z,10.70
2022-09-02T00:34:51.274Z,10.70
2022-09-02T00:37:19.376Z,10.70
2022-09-02T00:39:47.444Z,10.70
2022-09-02T00:42:15.522Z,10.80
2022-09-02T00:44:43.823Z,10.80
2022-09-02T00:47:11.905Z,10.90
2022-09-02T00:49:43.569Z,11.00
2022-09-02T00:52:17.308Z,11.00
2022-09-02T00:54:52.861Z,11.00
2022-09-02T00:57:23.991Z,11.00
2022-09-02T00:59:58.488Z,11.00
2022-09-02T01:02:29.072Z,11.10
2022-09-02T01:04:58.593Z,11.00
2022-09-02T01:07:33.961Z,10.90
2022-09-02T01:10:03.804Z,10.90
2022-09-02T01:12:33.469Z,10.80
2022-09-02T01:15:01.689Z,11.00
2022-09-02T01:17:29.917Z,11.00
2022-09-02T01:20:12.157Z,10.90
2022-09-02T01:22:42.818Z,10.60
2022-09-02T01:25:13.484Z,10.40
2022-09-02T01:27:41.702Z,10.40
2022-09-02T01:30:13.315Z,10.40
2022-09-02T01:32:41.441Z,10.40
2022-09-02T01:35:11.104Z,10.40
2022-09-02T01:37:39.752Z,10.30
2022-09-02T01:40:11.902Z,10.30
2022-09-02T01:42:42.245Z,10.20
2022-09-02T01:45:11.226Z,10.10
2022-09-02T01:47:39.339Z,10.20
2022-09-02T01:50:08.492Z,10.20
2022-09-02T01:52:36.857Z,10.10
2022-09-02T01:55:06.233Z,10.10
2022-09-02T01:57:35.698Z,10.20
2022-09-02T02:00:06.075Z,10.10
2022-09-02T02:02:34.369Z,10.10
2022-09-02T02:05:02.804Z,10.00
2022-09-02T02:07:30.944Z,10.00
2022-09-02T02:09:59.048Z,9.90
2022-09-02T02:12:27.166Z,10.00
2022-09-02T02:14:56.546Z,10.10
2022-09-02T02:17:24.596Z,10.20
2022-09-02T02:19:52.614Z,10.20
2022-09-02T02:22:20.981Z,10.40
2022-09-02T02:24:49.057Z,10.40
2022-09-02T02:27:17.326Z,10.10
2022-09-02T02:29:45.385Z,10.00
2022-09-02T02:32:14.883Z,10.10
2022-09-02T02:34:43.478Z,10.20
2022-09-02T02:37:12.365Z,10.30
2022-09-02T02:39:40.513Z,10.40
2022-09-02T02:42:09.053Z,10.50
2022-09-02T02:44:38.654Z,10.40
2022-09-02T02:47:07.822Z,10.30
2022-09-02T02:49:40.104Z,10.20
2022-09-02T02:52:08.572Z,10.10
2022-09-02T02:54:36.639Z,10.10
2022-09-02T02:57:05.754Z,10.00
2022-09-02T02:59:33.897Z,10.00
2022-09-02T03:02:02.173Z,10.00
2022-09-02T03:04:30.325Z,9.80
2022-09-02T03:06:59.895Z,9.80
2022-09-02T03:09:27.945Z,9.70
2022-09-02T03:11:56.006Z,9.70
2022-09-02T03:14:24.260Z,9.70
2022-09-02T03:16:52.334Z,9.60
2022-09-02T03:19:20.503Z,9.40
2022-09-02T03:21:48.564Z,9.30
2022-09-02T03:24:18.069Z,9.30
2022-09-02T03:26:46.416Z,9.10
2022-09-02T03:29:14.573Z,9.10
2022-09-02T03:31:42.668Z,9.10
2022-09-02T03:34:12.063Z,9.10
2022-09-02T03:36:44.127Z,8.80
2022-09-02T03:39:12.976Z,9.20
2022-09-02T03:41:42.747Z,8.90
2022-09-02T03:44:12.315Z,9.00
2022-09-02T03:46:40.428Z,8.70
2022-09-02T03:49:08.641Z,8.80
2022-09-02T03:51:36.744Z,9.60
2022-09-02T03:54:07.041Z,8.50
2022-09-02T03:56:35.535Z,9.00
2022-09-02T03:59:05.996Z,9.30
2022-09-02T04:01:35.075Z,8.80
2022-09-02T04:04:04.768Z,8.50
2022-09-02T04:06:33.385Z,8.70
2022-09-02T04:09:01.657Z,9.00
2022-09-02T04:16:29.064Z,8.70
2022-09-02T04:18:58.515Z,8.70
2022-09-02T04:21:27.237Z,8.70
2022-09-02T04:23:55.404Z,8.60
2022-09-02T04:26:23.938Z,8.60
2022-09-02T04:28:54.089Z,7.80
2022-09-02T04:31:25.647Z,9.10
2022-09-02T04:33:55.391Z,9.00
2022-09-02T04:36:24.319Z,9.10
2022-09-02T04:38:53.962Z,9.20
2022-09-02T04:41:24.875Z,8.80
2022-09-02T04:43:55.393Z,8.90
2022-09-02T04:46:34.015Z,9.10
2022-09-02T04:49:05.379Z,9.20
2022-09-02T04:51:33.606Z,9.10
2022-09-02T04:54:02.306Z,9.20
2022-09-02T04:56:32.280Z,9.30
2022-09-02T04:59:00.567Z,9.60
2022-09-02T05:01:32.303Z,9.60
2022-09-02T05:04:02.877Z,9.90
2022-09-02T05:06:32.337Z,9.90
2022-09-02T05:09:01.941Z,9.80
2022-09-02T05:11:33.883Z,9.70
2022-09-02T05:14:04.772Z,10.00
2022-09-02T05:16:36.641Z,9.90
2022-09-02T05:19:06.121Z,10.00
2022-09-02T05:21:35.954Z,9.90
2022-09-02T05:24:04.457Z,9.90
2022-09-02T05:29:07.005Z,9.90
2022-09-02T05:31:35.229Z,11.30
2022-09-02T05:34:03.288Z,10.20
2022-09-02T05:36:32.640Z,9.60
2022-09-02T05:39:02.551Z,10.50
2022-09-02T05:41:30.713Z,10.70
2022-09-02T05:44:01.531Z,10.50
2022-09-02T05:46:32.341Z,10.40
2022-09-02T05:49:10.190Z,10.50
2022-09-02T05:51:44.108Z,10.50
2022-09-02T05:54:16.644Z,10.50
2022-09-02T05:56:46.062Z,10.60
2022-09-02T05:59:14.424Z,10.70
2022-09-02T06:01:43.006Z,10.80
2022-09-02T06:04:11.125Z,10.80
2022-09-02T06:06:39.577Z,10.90
2022-09-02T06:09:09.438Z,11.00
2022-09-02T06:11:45.362Z,11.20
2022-09-02T06:14:14.413Z,11.20
2022-09-02T06:16:43.378Z,11.30
2022-09-02T06:19:13.566Z,11.40
2022-09-02T06:21:46.451Z,11.40
2022-09-02T06:24:15.006Z,11.60
2022-09-02T06:26:44.961Z,11.60
2022-09-02T06:29:13.496Z,11.70
2022-09-02T06:31:42.560Z,11.80
2022-09-02T06:34:13.718Z,11.80
2022-09-02T06:36:42.136Z,11.90
2022-09-02T06:39:13.199Z,12.00
2022-09-02T06:41:42.525Z,12.10
2022-09-02T06:44:15.229Z,12.20
2022-09-02T06:46:46.423Z,12.30
2022-09-02T06:49:16.277Z,12.40
2022-09-02T06:51:46.547Z,12.60
2022-09-02T06:54:19.811Z,12.70
2022-09-02T06:56:49.931Z,12.80
2022-09-02T06:59:20.073Z,12.80
2022-09-02T07:01:48.951Z,12.90
2022-09-02T07:04:35.332Z,13.00
2022-09-02T07:07:06.015Z,13.10
2022-09-02T07:09:34.065Z,13.20
2022-09-02T07:12:05.289Z,13.40
2022-09-02T07:14:39.168Z,13.40
2022-09-02T07:17:08.201Z,13.50
2022-09-02T07:19:36.389Z,13.60
2022-09-02T07:22:05.356Z,13.60
2022-09-02T07:24:33.707Z,13.70
2022-09-02T07:27:01.776Z,13.80
2022-09-02T07:29:29.835Z,13.80
2022-09-02T07:31:59.631Z,13.90
2022-09-02T07:34:27.784Z,14.10
2022-09-02T07:36:59.056Z,14.10
2022-09-02T07:39:30.762Z,14.20
2022-09-02T07:41:59.155Z,14.20
2022-09-02T07:44:29.047Z,14.20
2022-09-02T07:46:58.534Z,14.30
2022-09-02T07:49:27.022Z,14.30
2022-09-02T07:51:55.147Z,14.40
2022-09-02T07:54:26.834Z,14.60
2022-09-02T07:56:55.900Z,14.60
2022-09-02T07:59:24.790Z,14.80
2022-09-02T08:01:54.856Z,14.90
2022-09-02T08:04:24.950Z,14.90
2022-09-02T08:06:54.291Z,15.20
2022-09-02T08:09:23.677Z,15.20
2022-09-02T08:11:53.453Z,15.70
2022-09-02T08:14:26.024Z,15.80
2022-09-02T08:16:55.359Z,15.70
2022-09-02T08:19:26.372Z,15.60
2022-09-02T08:21:55.335Z,15.60
2022-09-02T08:24:23.431Z,15.70
2022-09-02T08:26:51.702Z,15.80
2022-09-02T08:29:19.830Z,15.80
2022-09-02T08:31:49.648Z,16.00
2022-09-02T08:34:20.239Z,16.10
2022-09-02T08:36:57.044Z,16.20
2022-09-02T08:39:25.919Z,16.20
2022-09-02T08:42:03.747Z,16.30
2022-09-02T08:44:37.618Z,16.30
2022-09-02T08:47:11.258Z,16.60
2022-09-02T08:49:44.148Z,16.70
2022-09-02T08:52:21.417Z,16.90
2022-09-02T08:54:53.583Z,16.70
2022-09-02T08:57:23.383Z,16.60
2022-09-02T08:59:53.133Z,17.10
2022-09-02T09:02:29.949Z,16.90
2022-09-02T09:05:15.427Z,17.10
2022-09-02T09:08:00.751Z,17.40
2022-09-02T09:10:36.837Z,17.40
2022-09-02T09:13:19.138Z,17.40
2022-09-02T09:15:52.279Z,17.50
2022-09-02T09:18:24.246Z,17.40
2022-09-02T09:20:52.450Z,17.50
2022-09-02T09:23:28.779Z,17.70
2022-09-02T09:26:09.018Z,17.50
2022-09-02T09:28:42.431Z,17.70
2022-09-02T09:31:15.621Z,17.70
2022-09-02T09:33:56.926Z,17.60
2022-09-02T09:36:49.280Z,17.60
2022-09-02T09:39:25.022Z,17.60
2022-09-02T09:41:54.720Z,17.90
2022-09-02T09:44:44.632Z,18.20
2022-09-02T09:47:19.557Z,18.00
2022-09-02T09:49:49.363Z,18.00
2022-09-02T09:52:25.135Z,18.00
2022-09-02T09:55:24.393Z,17.90
2022-09-02T09:57:54.097Z,17.70
2022-09-02T10:00:28.107Z,18.10
2022-09-02T10:02:59.633Z,18.10
2022-09-02T10:05:34.226Z,18.00
2022-09-02T10:08:08.308Z,18.20
2022-09-02T10:11:01.063Z,18.20
2022-09-02T10:13:31.759Z,18.10
2022-09-02T10:16:16.175Z,18.30
2022-09-02T10:18:51.042Z,18.40
2022-09-02T10:21:33.700Z,18.70
2022-09-02T10:24:08.722Z,18.70
2022-09-02T10:26:43.555Z,18.50
2022-09-02T10:29:51.993Z,18.40
2022-09-02T10:33:07.794Z,18.50
2022-09-02T10:35:43.807Z,18.70
2022-09-02T10:38:29.371Z,19.00
2022-09-02T10:41:05.758Z,19.00
2022-09-02T10:44:06.525Z,18.60
2022-09-02T10:46:43.760Z,18.90
2022-09-02T10:49:21.324Z,18.80
2022-09-02T10:51:59.702Z,18.90
2022-09-02T10:54:40.636Z,19.00
2022-09-02T10:57:12.894Z,18.90
2022-09-02T10:59:45.011Z,18.80
2022-09-02T11:02:19.098Z,18.80
2022-09-02T11:04:50.985Z,19.10
2022-09-02T11:07:26.891Z,19.00
2022-09-02T11:09:58.416Z,18.90
2022-09-02T11:12:32.634Z,19.00
2022-09-02T11:15:10.986Z,19.00
2022-09-02T11:17:48.628Z,19.30
2022-09-02T11:20:27.674Z,19.10
2022-09-02T11:23:00.911Z,19.20
2022-09-02T11:25:35.351Z,19.60
2022-09-02T11:28:14.467Z,19.70
2022-09-02T11:30:48.660Z,20.10
2022-09-02T11:33:24.623Z,20.30
2022-09-02T11:35:52.810Z,20.40
2022-09-02T11:38:34.561Z,20.40
2022-09-02T11:41:35.424Z,20.50
2022-09-02T11:44:31.413Z,20.40
2022-09-02T11:47:18.203Z,20.40
2022-09-02T11:50:23.845Z,20.80
2022-09-02T11:53:02.721Z,20.50
2022-09-02T11:55:35.381Z,20.70
2022-09-02T11:58:04.689Z,20.60
2022-09-02T12:00:36.827Z,20.90
2022-09-02T12:03:37.817Z,20.70
2022-09-02T12:06:11.178Z,20.90
2022-09-02T12:09:03.853Z,21.20
2022-09-02T12:11:41.804Z,21.60
2022-09-02T12:14:13.705Z,21.80
2022-09-02T12:17:02.652Z,21.70
2022-09-02T12:19:42.641Z,21.90
2022-09-02T12:22:38.621Z,22.10
2022-09-02T12:25:40.419Z,22.20
2022-09-02T12:28:24.119Z,22.10
2022-09-02T12:31:18.674Z,22.00
2022-09-02T12:33:52.288Z,21.20
2022-09-02T12:36:49.003Z,20.90
2022-09-02T12:39:58.449Z,21.00
2022-09-02T12:42:31.055Z,20.70
2022-09-02T12:45:07.883Z,20.40
2022-09-02T12:47:50.409Z,20.30
2022-09-02T12:50:26.215Z,20.40
2022-09-02T12:53:12.346Z,20.60
2022-09-02T12:55:43.786Z,20.70
2022-09-02T12:58:14.667Z,20.70
2022-09-02T13:00:59.743Z,20.50
2022-09-02T13:03:51.094Z,22.30
2022-09-02T13:06:26.482Z,22.80
2022-09-02T13:14:55.225Z,24.90
2022-09-02T13:17:37.125Z,25.10
2022-09-02T13:20:45.040Z,25.20
2022-09-02T13:23:54.713Z,24.90
2022-09-02T13:26:50.482Z,23.10
2022-09-02T13:29:46.678Z,22.30
2022-09-02T13:32:24.021Z,21.90
2022-09-02T13:34:56.081Z,22.10
2022-09-02T13:37:36.782Z,22.10
2022-09-02T13:40:17.913Z,21.90
2022-09-02T13:42:50.314Z,21.90
2022-09-02T13:45:20.016Z,21.70
2022-09-02T13:47:52.734Z,21.40
2022-09-02T13:50:23.516Z,21.10
2022-09-02T13:53:49.277Z,21.00
2022-09-02T13:55:49.947Z,21.30
2022-09-02T13:58:33.880Z,22.50
2022-09-02T14:01:21.268Z,23.20
2022-09-02T14:03:52.583Z,23.30
2022-09-02T14:06:24.698Z,22.90
2022-09-02T14:08:56.709Z,22.40
2022-09-02T14:11:25.394Z,22.50
2022-09-02T14:13:54.599Z,22.90
2022-09-02T14:16:33.251Z,22.20
2022-09-02T14:19:11.557Z,21.30
2022-09-02T14:21:46.930Z,21.40
2022-09-02T14:24:16.607Z,21.10
2022-09-02T14:26:47.353Z,21.20
2022-09-02T14:29:17.486Z,21.00
2022-09-02T14:31:46.388Z,20.90
2022-09-02T14:34:36.469Z,20.80
2022-09-02T14:37:21.499Z,20.90
2022-09-02T14:40:09.365Z,21.10
2022-09-02T14:42:49.652Z,21.30
2022-09-02T14:45:27.687Z,21.00
2022-09-02T14:47:56.933Z,20.70
2022-09-02T14:50:30.667Z,20.90
2022-09-02T14:53:04.809Z,21.30
2022-09-02T14:56:00.041Z,21.20
2022-09-02T14:58:29.379Z,20.80
2022-09-02T15:01:01.087Z,20.80
2022-09-02T15:03:30.057Z,20.30
2022-09-02T15:05:59.479Z,20.40
2022-09-02T15:08:27.573Z,21.40
2022-09-02T15:10:59.216Z,23.50
2022-09-02T15:13:30.450Z,25.30
2022-09-02T15:15:59.567Z,25.10
2022-09-02T15:18:27.827Z,25.20
2022-09-02T15:21:18.239Z,26.30
2022-09-02T15:23:51.275Z,26.30
2022-09-02T15:26:35.179Z,27.40
2022-09-02T15:29:03.399Z,28.10
2022-09-02T15:31:32.118Z,27.00
2022-09-02T15:34:00.255Z,27.20
2022-09-02T15:36:31.421Z,27.40
2022-09-02T15:39:00.633Z,27.80
2022-09-02T15:41:31.549Z,27.80
2022-09-02T15:44:00.782Z,27.50
2022-09-02T15:46:30.523Z,27.70
2022-09-02T15:49:04.176Z,27.90
2022-09-02T15:51:34.437Z,28.30
2022-09-02T15:54:04.498Z,26.20
2022-09-02T15:56:34.101Z,26.10
2022-09-02T15:59:03.944Z,25.90
2022-09-02T16:01:33.663Z,25.60
2022-09-02T16:04:03.030Z,25.50
2022-09-02T16:06:31.878Z,24.90
2022-09-02T16:09:01.560Z,25.10
2022-09-02T16:11:29.932Z,25.40
2022-09-02T16:13:58.143Z,25.50
2022-09-02T16:16:26.448Z,25.60
2022-09-02T16:18:55.336Z,25.80
2022-09-02T16:21:23.631Z,25.30
2022-09-02T16:23:53.032Z,25.30
2022-09-02T16:26:26.673Z,25.10
2022-09-02T16:28:56.660Z,24.60
2022-09-02T16:31:25.856Z,24.70
2022-09-02T16:33:55.605Z,24.70
2022-09-02T16:36:24.295Z,25.00
2022-09-02T16:38:55.433Z,24.60
2022-09-02T16:41:28.138Z,24.40
2022-09-02T16:43:57.489Z,24.00
2022-09-02T16:46:26.760Z,23.80
2022-09-02T16:48:56.026Z,23.50
2022-09-02T16:51:24.879Z,23.20
2022-09-02T16:53:55.344Z,22.70
2022-09-02T16:56:26.202Z,22.40
2022-09-02T16:58:55.303Z,22.40
2022-09-02T17:01:27.607Z,22.20
2022-09-02T17:04:00.513Z,22.20
2022-09-02T17:06:28.855Z,22.10
2022-09-02T17:08:57.293Z,21.60
2022-09-02T17:11:29.281Z,21.40
2022-09-02T17:14:00.704Z,21.30
2022-09-02T17:16:33.028Z,21.20
2022-09-02T17:19:02.628Z,20.90
2022-09-02T17:21:32.381Z,20.40
2022-09-02T17:24:00.714Z,20.20
2022-09-02T17:26:32.916Z,19.90
2022-09-02T17:29:01.578Z,19.60
2022-09-02T17:31:31.134Z,19.40
2022-09-02T17:34:00.996Z,19.20
2022-09-02T17:36:30.871Z,19.60
2022-09-02T17:39:00.719Z,18.80
2022-09-02T17:41:47.929Z,18.60
2022-09-02T17:44:17.070Z,18.50
2022-09-02T17:46:46.181Z,18.20
2022-09-02T17:49:17.745Z,18.00
2022-09-02T17:51:46.589Z,17.90
2022-09-02T17:54:15.199Z,17.80
2022-09-02T17:57:09.577Z,17.70
2022-09-02T17:59:51.120Z,17.40
2022-09-02T18:02:55.191Z,17.40
2022-09-02T18:05:29.242Z,17.00
2022-09-02T18:08:01.693Z,17.00
2022-09-02T18:10:34.434Z,16.80
2022-09-02T18:13:08.019Z,16.70
2022-09-02T18:15:52.164Z,16.50
2022-09-02T18:20:55.673Z,16.30
2022-09-02T18:23:40.452Z,15.30
2022-09-02T18:26:17.618Z,15.70
2022-09-02T18:28:56.543Z,15.90
2022-09-02T18:31:41.914Z,15.80
2022-09-02T18:34:30.232Z,15.70
2022-09-02T18:37:07.588Z,16.00
2022-09-02T18:39:47.756Z,15.70
2022-09-02T18:42:25.235Z,15.60
2022-09-02T18:45:05.338Z,15.50
2022-09-02T18:47:37.573Z,15.40
2022-09-02T18:50:07.477Z,15.00
2022-09-02T18:52:38.151Z,15.60
2022-09-02T18:55:11.055Z,15.30
2022-09-02T18:57:46.451Z,15.30
2022-09-02T19:00:16.517Z,15.20
2022-09-02T19:02:51.511Z,15.20
2022-09-02T19:05:24.939Z,15.20
2022-09-02T19:08:18.992Z,15.20
2022-09-02T19:10:47.541Z,15.40
2022-09-02T19:15:45.784Z,14.30
2022-09-02T19:23:15.153Z,14.80
2022-09-02T19:25:45.162Z,14.90
2022-09-02T19:28:15.550Z,14.70
2022-09-02T19:30:45.196Z,14.60
2022-09-02T19:33:15.283Z,14.50
2022-09-02T19:35:47.588Z,14.60
2022-09-02T19:38:17.711Z,14.70
2022-09-02T19:40:49.439Z,14.60
2022-09-02T19:43:17.665Z,14.70
2022-09-02T19:45:51.426Z,14.40
2022-09-02T19:48:20.328Z,14.50
2022-09-02T19:50:49.359Z,14.50
2022-09-02T19:53:23.672Z,14.40
2022-09-02T19:55:51.750Z,14.40
2022-09-02T20:00:49.979Z,13.50
2022-09-02T20:03:18.370Z,12.70
2022-09-02T20:10:44.850Z,13.90
2022-09-02T20:13:16.551Z,13.80
2022-09-02T20:15:44.592Z,13.20
2022-09-02T20:18:15.974Z,13.60
2022-09-02T20:20:45.364Z,13.20
2022-09-02T20:23:17.196Z,13.40
2022-09-02T20:25:57.548Z,12.80
2022-09-02T20:28:31.775Z,13.40
2022-09-02T20:31:11.252Z,13.50
2022-09-02T20:33:52.137Z,13.90
2022-09-02T20:36:32.697Z,13.70
2022-09-02T20:39:19.510Z,13.80
2022-09-02T20:41:58.021Z,13.70
2022-09-02T20:44:44.364Z,13.70
2022-09-02T20:47:30.823Z,13.60
2022-09-02T20:50:16.978Z,13.80
2022-09-02T20:52:58.272Z,13.20
2022-09-02T20:55:31.878Z,13.40
2022-09-02T20:58:22.249Z,13.30
2022-09-02T21:01:01.777Z,13.20
2022-09-02T21:03:41.051Z,13.20
2022-09-02T21:06:15.330Z,13.10
2022-09-02T21:08:57.693Z,13.00
2022-09-02T21:11:29.461Z,13.00
2022-09-02T21:14:05.177Z,13.00
2022-09-02T21:16:37.661Z,12.90
2022-09-02T21:19:11.796Z,12.90
2022-09-02T21:21:47.220Z,12.90
2022-09-02T21:24:19.113Z,13.00
2022-09-02T21:26:58.310Z,12.00
2022-09-02T21:29:32.272Z,12.80
2022-09-02T21:32:05.799Z,12.70
2022-09-02T21:34:38.177Z,12.80
2022-09-02T21:37:09.667Z,12.60
2022-09-02T21:39:42.663Z,12.70
2022-09-02T21:42:24.556Z,12.70
2022-09-02T21:45:04.293Z,12.90
2022-09-02T21:47:37.714Z,12.90
2022-09-02T21:50:12.876Z,12.00
2022-09-02T21:52:56.974Z,12.20
2022-09-02T21:55:47.023Z,12.40
2022-09-02T21:58:35.330Z,12.30
2022-09-02T22:01:08.916Z,12.30
2022-09-02T22:03:42.463Z,12.20
2022-09-02T22:06:17.972Z,12.20
2022-09-02T22:08:53.239Z,12.10
2022-09-02T22:11:27.692Z,12.20
2022-09-02T22:13:58.909Z,12.10
2022-09-02T22:16:39.362Z,11.70
2022-09-02T22:19:10.895Z,11.10
2022-09-02T22:21:48.436Z,11.70
2022-09-02T22:24:19.378Z,11.90
2022-09-02T22:26:52.367Z,12.00
2022-09-02T22:29:35.141Z,11.80
2022-09-02T22:32:04.998Z,11.60
2022-09-02T22:34:39.901Z,11.80
2022-09-02T22:37:12.095Z,11.90
2022-09-02T22:39:49.296Z,11.70
2022-09-02T22:42:24.542Z,11.80
2022-09-02T22:45:18.959Z,11.90
2022-09-02T22:48:10.171Z,11.70
2022-09-02T22:51:02.183Z,11.60
2022-09-02T22:53:30.861Z,11.60
2022-09-02T22:56:05.314Z,11.50
2022-09-02T22:59:03.132Z,11.50
2022-09-02T23:01:43.100Z,11.30
2022-09-02T23:04:22.574Z,11.30
2022-09-02T23:06:55.125Z,11.20
2022-09-02T23:09:23.189Z,11.30
2022-09-02T23:12:02.391Z,11.40
2022-09-02T23:14:41.919Z,11.50
2022-09-02T23:17:27.590Z,11.60
2022-09-02T23:20:08.757Z,11.40
2022-09-02T23:22:58.563Z,11.30
2022-09-02T23:25:41.557Z,11.40
2022-09-02T23:28:18.512Z,11.30
2022-09-02T23:33:46.073Z,11.20
2022-09-02T23:36:19.791Z,11.10
2022-09-02T23:39:06.629Z,11.10
2022-09-02T23:44:08.727Z,11.10
2022-09-02T23:46:48.100Z,11.20
2022-09-02T23:49:26.931Z,10.90
2022-09-02T23:52:05.381Z,10.90
2022-09-02T23:54:50.582Z,10.90
2022-09-02T23:57:36.789Z,10.90
